createdAt,value
2024-03-07T00:00:20.017Z,14.43
2024-03-07T00:03:09.678Z,14.10
2024-03-07T00:05:41.166Z,15.38
2024-03-07T00:10:38.500Z,14.25
2024-03-07T00:13:06.855Z,15.25
2024-03-07T00:15:35.890Z,14.88
2024-03-07T00:18:04.878Z,15.15
2024-03-07T00:20:33.954Z,16.98
2024-03-07T00:23:04.394Z,15.88
2024-03-07T00:25:33.306Z,16.23
2024-03-07T00:28:04.460Z,17.85
2024-03-07T00:30:35.147Z,17.70
2024-03-07T00:33:03.637Z,19.30
2024-03-07T00:35:32.356Z,19.45
2024-03-07T00:38:00.892Z,20.50
2024-03-07T00:40:31.036Z,19.83
2024-03-07T00:43:00.583Z,21.30
2024-03-07T00:45:29.142Z,19.92
2024-03-07T00:47:57.800Z,20.25
2024-03-07T00:50:26.751Z,22.27
2024-03-07T00:52:55.301Z,21.27
2024-03-07T00:55:23.902Z,20.08
2024-03-07T00:57:53.705Z,20.30
2024-03-07T01:00:22.968Z,20.15
2024-03-07T01:02:54.612Z,20.80
2024-03-07T01:05:23.503Z,20.27
2024-03-07T01:07:52.001Z,19.52
2024-03-07T01:10:21.326Z,20.23
2024-03-07T01:12:51.486Z,20.67
2024-03-07T01:15:21.688Z,19.75
2024-03-07T01:17:50.389Z,19.63
2024-03-07T01:20:19.784Z,20.02
2024-03-07T01:22:48.382Z,19.23
2024-03-07T01:25:17.981Z,20.67
2024-03-07T01:27:48.831Z,19.23
2024-03-07T01:30:18.026Z,20.75
2024-03-07T01:32:47.885Z,21.05
2024-03-07T01:35:16.871Z,20.45
2024-03-07T01:37:45.377Z,18.77
2024-03-07T01:40:15.429Z,18.33
2024-03-07T01:42:43.805Z,20.25
2024-03-07T01:45:12.498Z,19.88
2024-03-07T01:47:41.155Z,20.20
2024-03-07T01:50:12.043Z,22.20
2024-03-07T01:52:42.721Z,22.42
2024-03-07T01:55:12.198Z,23.83
2024-03-07T01:57:42.363Z,23.25
2024-03-07T02:00:12.912Z,23.63
2024-03-07T02:02:41.775Z,21.95
2024-03-07T02:05:11.984Z,22.92
2024-03-07T02:07:41.279Z,23.60
2024-03-07T02:10:11.937Z,22.17
2024-03-07T02:12:42.105Z,23.50
2024-03-07T02:15:11.537Z,23.63
2024-03-07T02:17:41.362Z,23.33
2024-03-07T02:20:14.451Z,22.63
2024-03-07T02:22:44.373Z,22.42
2024-03-07T02:25:13.802Z,22.15
2024-03-07T02:27:42.369Z,21.65
2024-03-07T02:30:13.611Z,21.38
2024-03-07T02:32:42.190Z,22.48
2024-03-07T02:35:12.631Z,19.58
2024-03-07T02:37:41.101Z,21.02
2024-03-07T02:40:13.149Z,22.65
2024-03-07T02:42:44.947Z,24.25
2024-03-07T02:45:16.443Z,22.52
2024-03-07T02:47:45.746Z,22.30
2024-03-07T02:50:16.224Z,23.08
2024-03-07T02:52:45.259Z,22.75
2024-03-07T02:55:15.299Z,26.10
2024-03-07T02:57:43.967Z,25.45
2024-03-07T03:00:21.597Z,26.08
2024-03-07T03:02:51.635Z,25.00
2024-03-07T03:05:20.874Z,23.45
2024-03-07T03:07:55.260Z,25.05
2024-03-07T03:10:28.162Z,22.88
2024-03-07T03:12:59.158Z,23.40
2024-03-07T03:15:28.262Z,24.10
2024-03-07T03:18:01.352Z,23.60
2024-03-07T03:20:36.603Z,23.95
2024-03-07T03:23:15.266Z,23.60
2024-03-07T03:25:51.615Z,24.50
2024-03-07T03:28:22.496Z,23.85
2024-03-07T03:33:22.123Z,21.92
2024-03-07T03:35:51.058Z,22.25
2024-03-07T03:38:21.686Z,22.42
2024-03-07T03:40:51.750Z,22.33
2024-03-07T03:43:21.000Z,21.92
2024-03-07T03:45:49.889Z,23.02
2024-03-07T03:48:19.259Z,24.77
2024-03-07T03:50:48.639Z,24.23
2024-03-07T03:53:17.141Z,21.90
2024-03-07T03:55:46.263Z,20.88
2024-03-07T03:58:18.161Z,21.20
2024-03-07T04:00:46.790Z,20.63
2024-03-07T04:03:15.476Z,21.38
2024-03-07T04:05:44.811Z,20.73
2024-03-07T04:08:13.210Z,21.60
2024-03-07T04:10:41.940Z,20.98
2024-03-07T04:13:10.328Z,20.40
2024-03-07T04:15:42.870Z,21.70
2024-03-07T04:18:13.500Z,20.88
2024-03-07T04:20:45.622Z,18.60
2024-03-07T04:23:14.452Z,20.15
2024-03-07T04:25:43.865Z,17.92
2024-03-07T04:28:12.565Z,21.30
2024-03-07T04:30:44.301Z,20.60
2024-03-07T04:33:12.886Z,20.40
2024-03-07T04:35:41.942Z,19.65
2024-03-07T04:38:12.909Z,19.20
2024-03-07T04:43:09.940Z,20.65
2024-03-07T04:45:38.767Z,21.50
2024-03-07T04:48:09.934Z,20.90
2024-03-07T04:50:39.405Z,22.60
2024-03-07T04:53:08.352Z,23.00
2024-03-07T04:55:36.994Z,23.08
2024-03-07T04:58:05.946Z,23.30
2024-03-07T05:00:36.478Z,22.52
2024-03-07T05:03:06.289Z,22.75
2024-03-07T05:05:36.436Z,23.30
2024-03-07T05:08:05.535Z,24.52
2024-03-07T05:10:34.180Z,22.98
2024-03-07T05:13:02.639Z,23.58
2024-03-07T05:15:32.350Z,23.38
2024-03-07T05:18:01.085Z,23.90
2024-03-07T05:20:31.668Z,24.42
2024-03-07T05:23:01.664Z,24.75
2024-03-07T05:25:32.808Z,22.20
2024-03-07T05:28:03.818Z,23.85
2024-03-07T05:30:33.869Z,23.90
2024-03-07T05:33:03.521Z,22.80
2024-03-07T05:35:32.896Z,20.35
2024-03-07T05:38:06.108Z,21.15
2024-03-07T05:40:34.803Z,21.30
2024-03-07T05:43:03.683Z,20.95
2024-03-07T05:45:32.272Z,22.13
2024-03-07T05:48:17.677Z,26.35
2024-03-07T05:50:47.815Z,27.95
2024-03-07T05:53:19.503Z,28.08
2024-03-07T05:55:48.472Z,27.80
2024-03-07T05:58:17.027Z,27.15
2024-03-07T06:00:47.919Z,23.95
2024-03-07T06:03:17.847Z,23.30
2024-03-07T06:05:49.594Z,21.67
2024-03-07T06:08:19.917Z,22.83
2024-03-07T06:10:51.635Z,23.25
2024-03-07T06:13:20.128Z,22.98
2024-03-07T06:15:50.052Z,22.20
2024-03-07T06:18:18.859Z,23.45
2024-03-07T06:20:48.185Z,23.25
2024-03-07T06:23:18.402Z,22.80
2024-03-07T06:25:52.095Z,23.30
2024-03-07T06:28:20.720Z,23.10
2024-03-07T06:30:50.268Z,23.98
2024-03-07T06:33:21.198Z,22.80
2024-03-07T06:35:53.320Z,22.42
2024-03-07T06:38:22.784Z,26.88
2024-03-07T06:40:54.030Z,23.33
2024-03-07T06:43:22.711Z,24.08
2024-03-07T06:45:51.419Z,22.13
2024-03-07T06:48:20.499Z,23.67
2024-03-07T06:50:49.297Z,25.67
2024-03-07T06:53:18.173Z,21.23
2024-03-07T06:55:47.297Z,22.00
2024-03-07T06:58:18.351Z,22.80
2024-03-07T07:00:46.508Z,24.33
2024-03-07T07:03:15.646Z,22.58
2024-03-07T07:05:45.451Z,24.10
2024-03-07T07:08:14.924Z,25.42
2024-03-07T07:10:43.922Z,24.15
2024-03-07T07:13:12.774Z,24.08
2024-03-07T07:15:43.041Z,25.17
2024-03-07T07:18:12.061Z,22.65
2024-03-07T07:20:40.908Z,24.35
2024-03-07T07:23:09.301Z,22.88
2024-03-07T07:25:38.305Z,24.25
2024-03-07T07:28:09.378Z,24.13
2024-03-07T07:30:38.489Z,23.90
2024-03-07T07:33:08.475Z,27.02
2024-03-07T07:35:37.594Z,24.70
2024-03-07T07:38:08.442Z,25.65
2024-03-07T07:40:37.564Z,24.92
2024-03-07T07:43:06.254Z,26.75
2024-03-07T07:45:37.090Z,26.00
2024-03-07T07:48:09.012Z,28.60
2024-03-07T07:50:37.704Z,25.92
2024-03-07T07:53:08.772Z,28.25
2024-03-07T07:55:37.733Z,25.73
2024-03-07T07:58:06.325Z,26.48
2024-03-07T08:00:36.960Z,23.40
2024-03-07T08:03:08.467Z,25.73
2024-03-07T08:05:38.669Z,23.77
2024-03-07T08:08:09.316Z,24.38
2024-03-07T08:10:39.639Z,23.75
2024-03-07T08:13:09.866Z,27.10
2024-03-07T08:15:38.861Z,24.42
2024-03-07T08:18:11.024Z,23.35
2024-03-07T08:20:44.416Z,22.73
2024-03-07T08:23:14.299Z,23.10
2024-03-07T08:25:43.118Z,23.00
2024-03-07T08:28:11.632Z,24.25
2024-03-07T08:30:40.407Z,24.80
2024-03-07T08:33:11.627Z,24.95
2024-03-07T08:35:41.009Z,23.15
2024-03-07T08:38:11.084Z,23.48
2024-03-07T08:40:41.152Z,25.13
2024-03-07T08:43:09.642Z,26.17
2024-03-07T08:45:38.537Z,24.33
2024-03-07T08:48:08.703Z,24.30
2024-03-07T08:50:40.348Z,25.45
2024-03-07T08:53:10.223Z,25.52
2024-03-07T08:55:39.067Z,28.98
2024-03-07T08:58:09.334Z,24.23
2024-03-07T09:00:39.965Z,25.33
2024-03-07T09:03:12.564Z,24.73
2024-03-07T09:05:44.053Z,26.05
2024-03-07T09:08:13.254Z,24.25
2024-03-07T09:10:43.701Z,23.70
2024-03-07T09:13:12.625Z,23.55
2024-03-07T09:15:41.380Z,25.13
2024-03-07T09:18:10.524Z,22.42
2024-03-07T09:20:40.236Z,23.63
2024-03-07T09:23:10.964Z,25.83
2024-03-07T09:25:41.248Z,25.42
2024-03-07T09:28:09.748Z,23.02
2024-03-07T09:30:40.177Z,22.95
2024-03-07T09:33:13.445Z,25.50
2024-03-07T09:35:42.361Z,26.85
2024-03-07T09:38:12.915Z,23.92
2024-03-07T09:40:41.651Z,23.20
2024-03-07T09:43:12.354Z,24.15
2024-03-07T09:45:46.820Z,24.70
2024-03-07T09:48:18.889Z,25.13
2024-03-07T09:50:49.132Z,23.77
2024-03-07T09:53:19.917Z,21.70
2024-03-07T09:55:49.019Z,25.08
2024-03-07T09:58:18.005Z,24.25
2024-03-07T10:00:48.245Z,28.27
2024-03-07T10:03:18.868Z,23.85
2024-03-07T10:05:47.776Z,26.02
2024-03-07T10:08:16.517Z,25.58
2024-03-07T10:10:48.942Z,25.33
2024-03-07T10:13:18.749Z,25.25
2024-03-07T10:15:48.914Z,25.90
2024-03-07T10:18:20.328Z,25.80
2024-03-07T10:20:49.816Z,29.02
2024-03-07T10:23:21.886Z,29.42
2024-03-07T10:25:52.342Z,26.08
2024-03-07T10:28:22.066Z,25.35
2024-03-07T10:30:52.653Z,27.95
2024-03-07T10:33:21.375Z,28.77
2024-03-07T10:35:51.697Z,24.75
2024-03-07T10:38:20.741Z,25.17
2024-03-07T10:40:51.560Z,25.80
2024-03-07T10:43:21.999Z,26.08
2024-03-07T10:45:53.119Z,26.83
2024-03-07T10:48:25.761Z,24.85
2024-03-07T10:51:02.862Z,25.85
2024-03-07T10:53:35.361Z,24.05
2024-03-07T10:56:23.097Z,24.02
2024-03-07T10:59:00.600Z,23.58
2024-03-07T11:01:34.623Z,26.50
2024-03-07T11:04:05.515Z,25.42
2024-03-07T11:09:11.466Z,23.58
2024-03-07T11:11:43.624Z,24.27
2024-03-07T11:14:13.711Z,24.38
2024-03-07T11:16:43.126Z,25.17
2024-03-07T11:19:20.856Z,25.75
2024-03-07T11:21:52.516Z,26.13
2024-03-07T11:24:34.008Z,24.30
2024-03-07T11:27:06.002Z,25.30
2024-03-07T11:29:45.926Z,24.40
2024-03-07T11:32:16.185Z,23.23
2024-03-07T11:34:48.018Z,24.38
2024-03-07T11:37:24.297Z,26.20
2024-03-07T11:39:55.180Z,23.40
2024-03-07T11:42:30.134Z,26.45
2024-03-07T11:44:59.556Z,28.40
2024-03-07T11:47:30.893Z,27.98
2024-03-07T11:52:30.015Z,27.48
2024-03-07T11:55:05.700Z,27.85
2024-03-07T11:57:36.491Z,26.42
2024-03-07T12:00:09.904Z,26.88
2024-03-07T12:02:39.663Z,25.33
2024-03-07T12:05:08.985Z,26.35
2024-03-07T12:07:39.733Z,24.13
2024-03-07T12:10:11.519Z,25.05
2024-03-07T12:12:41.857Z,25.20
2024-03-07T12:15:21.174Z,27.13
2024-03-07T12:17:51.823Z,26.67
2024-03-07T12:20:32.432Z,28.93
2024-03-07T12:23:04.483Z,28.25
2024-03-07T12:25:35.586Z,27.05
2024-03-07T12:28:07.588Z,30.05
2024-03-07T12:30:43.054Z,28.70
2024-03-07T12:33:12.122Z,25.40
2024-03-07T12:35:43.264Z,26.63
2024-03-07T12:40:46.568Z,28.05
2024-03-07T12:43:19.001Z,25.38
2024-03-07T12:45:50.357Z,29.13
2024-03-07T12:48:19.207Z,27.17
2024-03-07T12:50:48.420Z,28.00
2024-03-07T12:53:19.569Z,25.15
2024-03-07T12:55:47.942Z,26.88
2024-03-07T12:58:18.347Z,24.05
2024-03-07T13:00:46.583Z,21.88
2024-03-07T13:03:15.984Z,22.00
2024-03-07T13:05:44.518Z,22.45
2024-03-07T13:08:13.869Z,22.85
2024-03-07T13:10:42.706Z,20.52
2024-03-07T13:13:12.390Z,22.85
2024-03-07T13:15:43.834Z,20.90
2024-03-07T13:18:12.706Z,22.30
2024-03-07T13:20:44.775Z,22.48
2024-03-07T13:23:13.619Z,22.35
2024-03-07T13:25:42.553Z,24.63
2024-03-07T13:28:15.102Z,23.75
2024-03-07T13:30:50.437Z,22.15
2024-03-07T13:33:20.364Z,22.50
2024-03-07T13:35:48.901Z,22.73
2024-03-07T13:38:17.959Z,24.52
2024-03-07T13:40:46.679Z,23.92
2024-03-07T13:43:16.402Z,23.05
2024-03-07T13:45:46.591Z,22.63
2024-03-07T13:48:15.570Z,22.20
2024-03-07T13:50:55.969Z,25.63
2024-03-07T13:53:34.573Z,22.98
2024-03-07T13:56:42.376Z,21.58
2024-03-07T13:59:39.722Z,23.02
2024-03-07T14:02:26.062Z,19.50
2024-03-07T14:05:16.988Z,18.33
2024-03-07T14:07:58.443Z,16.57
2024-03-07T14:11:05.605Z,18.10
2024-03-07T14:13:44.503Z,18.17
2024-03-07T14:16:25.177Z,18.05
2024-03-07T14:19:37.890Z,18.30
2024-03-07T14:22:29.032Z,17.17
2024-03-07T14:25:18.775Z,17.45
2024-03-07T14:28:09.316Z,17.92
2024-03-07T14:30:45.071Z,20.30
2024-03-07T14:33:17.980Z,16.88
2024-03-07T14:36:06.436Z,16.85
2024-03-07T14:38:49.682Z,20.10
2024-03-07T14:41:18.890Z,17.05
2024-03-07T14:43:47.846Z,17.42
2024-03-07T14:46:18.001Z,18.77
2024-03-07T14:48:46.593Z,17.60
2024-03-07T14:51:17.097Z,15.15
2024-03-07T14:53:46.864Z,16.77
2024-03-07T14:56:15.321Z,27.52
2024-03-07T14:58:43.972Z,16.20
2024-03-07T15:01:13.405Z,13.88
2024-03-07T15:03:46.815Z,13.77
2024-03-07T15:06:17.087Z,17.15
2024-03-07T15:08:45.708Z,14.13
2024-03-07T15:11:18.775Z,13.40
2024-03-07T15:13:48.996Z,14.00
2024-03-07T15:16:28.971Z,13.90
2024-03-07T15:19:02.352Z,15.30
2024-03-07T15:21:31.942Z,11.65
2024-03-07T15:24:01.426Z,12.13
2024-03-07T15:26:32.500Z,13.38
2024-03-07T15:29:02.524Z,12.00
2024-03-07T15:31:31.400Z,13.02
2024-03-07T15:34:00.314Z,12.25
2024-03-07T15:36:30.751Z,13.00
2024-03-07T15:39:05.170Z,14.15
2024-03-07T15:41:34.845Z,14.25
2024-03-07T15:44:03.644Z,14.55
2024-03-07T15:46:31.899Z,18.02
2024-03-07T15:49:01.936Z,19.52
2024-03-07T15:51:30.404Z,21.65
2024-03-07T15:54:00.660Z,13.70
2024-03-07T15:56:29.301Z,14.23
2024-03-07T15:58:58.247Z,13.98
2024-03-07T16:01:26.624Z,13.00
2024-03-07T16:03:56.067Z,16.20
2024-03-07T16:06:24.395Z,13.45
2024-03-07T16:08:53.158Z,16.15
2024-03-07T16:11:25.581Z,13.68
2024-03-07T16:13:54.573Z,14.02
2024-03-07T16:16:22.990Z,12.20
2024-03-07T16:18:53.839Z,15.70
2024-03-07T16:21:23.739Z,14.20
2024-03-07T16:23:54.828Z,16.05
2024-03-07T16:26:24.810Z,16.38
2024-03-07T16:28:53.477Z,14.83
2024-03-07T16:31:21.855Z,13.15
2024-03-07T16:33:50.627Z,13.45
2024-03-07T16:36:19.146Z,15.25
2024-03-07T16:38:47.843Z,15.82
2024-03-07T16:41:16.480Z,24.00
2024-03-07T16:43:47.880Z,16.40
2024-03-07T16:46:18.068Z,12.65
2024-03-07T16:48:47.992Z,15.40
2024-03-07T16:51:19.255Z,16.27
2024-03-07T16:53:48.163Z,14.38
2024-03-07T16:56:17.187Z,15.27
2024-03-07T16:58:48.504Z,16.33
2024-03-07T17:01:16.988Z,16.60
2024-03-07T17:03:45.789Z,16.08
2024-03-07T17:06:14.111Z,20.67
2024-03-07T17:08:43.103Z,21.30
2024-03-07T17:11:14.547Z,17.10
2024-03-07T17:13:44.182Z,13.90
2024-03-07T17:16:14.048Z,14.40
2024-03-07T17:18:43.021Z,16.40
2024-03-07T17:21:11.966Z,15.82
2024-03-07T17:23:40.581Z,15.98
2024-03-07T17:26:09.054Z,19.60
2024-03-07T17:28:37.611Z,15.63
2024-03-07T17:31:06.829Z,17.77
2024-03-07T17:33:41.084Z,15.18
2024-03-07T17:36:11.111Z,19.00
2024-03-07T17:38:39.988Z,19.27
2024-03-07T17:41:09.421Z,18.05
2024-03-07T17:43:38.618Z,16.98
2024-03-07T17:46:08.350Z,17.70
2024-03-07T17:48:38.977Z,16.38
2024-03-07T17:51:08.414Z,21.17
2024-03-07T17:53:38.650Z,19.92
2024-03-07T17:56:07.895Z,24.85
2024-03-07T17:58:37.093Z,17.83
2024-03-07T18:01:08.381Z,18.50
2024-03-07T18:03:39.392Z,18.95
2024-03-07T18:06:10.395Z,19.95
2024-03-07T18:08:45.538Z,19.05
2024-03-07T18:11:20.313Z,18.60
2024-03-07T18:13:49.095Z,22.65
2024-03-07T18:16:18.595Z,22.00
2024-03-07T18:18:51.114Z,21.88
2024-03-07T18:21:20.143Z,22.30
2024-03-07T18:23:50.317Z,24.70
2024-03-07T18:26:19.946Z,27.55
2024-03-07T18:28:48.579Z,25.60
2024-03-07T18:31:19.379Z,26.52
2024-03-07T18:33:52.269Z,23.45
2024-03-07T18:36:22.796Z,22.85
2024-03-07T18:38:53.922Z,24.83
2024-03-07T18:41:22.344Z,26.10
2024-03-07T18:43:51.899Z,38.88
2024-03-07T18:46:20.551Z,39.58
2024-03-07T18:48:51.217Z,34.00
2024-03-07T18:51:24.304Z,24.48
2024-03-07T18:53:54.843Z,27.52
2024-03-07T18:56:24.741Z,29.10
2024-03-07T18:58:53.495Z,27.35
2024-03-07T19:01:22.403Z,22.77
2024-03-07T19:03:52.398Z,27.08
2024-03-07T19:06:21.033Z,26.60
2024-03-07T19:08:49.954Z,25.83
2024-03-07T19:11:19.473Z,25.88
2024-03-07T19:13:48.374Z,25.17
2024-03-07T19:16:17.150Z,27.67
2024-03-07T19:18:47.239Z,30.42
2024-03-07T19:21:17.276Z,28.85
2024-03-07T19:23:47.694Z,24.50
2024-03-07T19:26:21.191Z,26.97
2024-03-07T19:28:50.614Z,25.95
2024-03-07T19:31:19.260Z,25.80
2024-03-07T19:33:48.069Z,24.67
2024-03-07T19:36:18.030Z,24.45
2024-03-07T19:38:48.925Z,26.00
2024-03-07T19:41:18.040Z,25.83
2024-03-07T19:43:46.663Z,25.05
2024-03-07T19:46:15.037Z,26.80
2024-03-07T19:48:45.164Z,25.65
2024-03-07T19:51:13.917Z,23.83
2024-03-07T19:53:44.297Z,24.55
2024-03-07T19:56:22.503Z,27.50
2024-03-07T19:58:51.299Z,28.70
2024-03-07T20:01:19.771Z,25.42
2024-03-07T20:03:48.472Z,27.95
2024-03-07T20:06:16.855Z,29.70
2024-03-07T20:08:47.526Z,36.55
2024-03-07T20:11:15.981Z,32.45
2024-03-07T20:13:44.915Z,28.90
2024-03-07T20:16:14.476Z,30.23
2024-03-07T20:18:45.244Z,35.88
2024-03-07T20:21:13.882Z,33.47
2024-03-07T20:23:42.954Z,31.15
2024-03-07T20:26:12.905Z,31.23
2024-03-07T20:28:41.655Z,27.15
2024-03-07T20:31:10.269Z,28.65
2024-03-07T20:33:39.372Z,45.15
2024-03-07T20:36:10.313Z,39.45
2024-03-07T20:38:39.924Z,33.33
2024-03-07T20:41:08.425Z,24.90
2024-03-07T20:43:40.003Z,28.85
2024-03-07T20:46:08.624Z,25.48
2024-03-07T20:48:37.981Z,29.15
2024-03-07T20:51:07.541Z,30.15
2024-03-07T20:53:36.608Z,29.83
2024-03-07T20:56:08.013Z,35.30
2024-03-07T20:58:37.666Z,39.08
2024-03-07T21:01:10.834Z,28.30
2024-03-07T21:03:42.666Z,31.55
2024-03-07T21:06:13.045Z,31.25
2024-03-07T21:08:43.722Z,33.25
2024-03-07T21:11:13.485Z,28.55
2024-03-07T21:13:43.152Z,30.50
2024-03-07T21:16:13.593Z,29.83
2024-03-07T21:18:42.770Z,29.63
2024-03-07T21:21:11.886Z,28.58
2024-03-07T21:23:41.723Z,27.73
2024-03-07T21:26:13.353Z,29.23
2024-03-07T21:28:42.117Z,26.90
2024-03-07T21:31:12.768Z,29.77
2024-03-07T21:33:41.771Z,30.75
2024-03-07T21:36:11.299Z,30.45
2024-03-07T21:38:40.244Z,33.75
2024-03-07T21:41:10.196Z,31.50
2024-03-07T21:43:38.915Z,33.78
2024-03-07T21:46:07.715Z,32.63
2024-03-07T21:48:39.765Z,39.35
2024-03-07T21:51:11.629Z,38.85
2024-03-07T21:53:45.431Z,38.60
2024-03-07T21:56:14.435Z,39.42
2024-03-07T21:58:43.092Z,40.30
2024-03-07T22:01:13.903Z,37.50
2024-03-07T22:03:44.367Z,34.75
2024-03-07T22:06:15.732Z,32.83
2024-03-07T22:08:44.026Z,31.02
2024-03-07T22:11:17.537Z,34.70
2024-03-07T22:16:16.826Z,31.80
2024-03-07T22:18:48.093Z,31.95
2024-03-07T22:21:17.215Z,32.63
2024-03-07T22:23:46.070Z,30.92
2024-03-07T22:26:14.913Z,32.22
2024-03-07T22:28:43.611Z,32.20
2024-03-07T22:31:12.669Z,30.42
2024-03-07T22:33:41.954Z,30.20
2024-03-07T22:36:12.143Z,33.47
2024-03-07T22:38:40.670Z,35.63
2024-03-07T22:41:09.405Z,31.00
2024-03-07T22:43:38.092Z,30.05
2024-03-07T22:46:08.576Z,29.25
2024-03-07T22:48:37.413Z,35.50
2024-03-07T22:51:07.172Z,31.33
2024-03-07T22:53:37.277Z,30.73
2024-03-07T22:56:06.524Z,29.35
2024-03-07T22:58:35.045Z,31.42
2024-03-07T23:01:05.593Z,35.70
2024-03-07T23:03:34.356Z,31.13
2024-03-07T23:06:03.290Z,30.92
2024-03-07T23:08:31.631Z,30.77
2024-03-07T23:11:01.955Z,30.67
2024-03-07T23:13:30.373Z,28.00
2024-03-07T23:15:59.191Z,29.40
2024-03-07T23:18:27.593Z,30.67
2024-03-07T23:20:57.732Z,30.30
2024-03-07T23:23:26.191Z,31.95
2024-03-07T23:25:55.029Z,29.70
2024-03-07T23:28:25.166Z,28.85
2024-03-07T23:30:53.877Z,29.90
2024-03-07T23:33:22.825Z,29.17
2024-03-07T23:35:51.499Z,30.95
2024-03-07T23:38:19.935Z,29.10
2024-03-07T23:40:48.548Z,29.52
2024-03-07T23:43:19.157Z,29.20
2024-03-07T23:45:49.234Z,29.05
2024-03-07T23:48:18.740Z,28.58
2024-03-07T23:50:47.618Z,29.27
2024-03-07T23:53:15.959Z,29.33
2024-03-07T23:55:44.654Z,29.38
2024-03-07T23:58:12.933Z,28.23
